createdAt,value
2023-05-19T00:01:12.538Z,46.88
2023-05-19T00:03:54.167Z,48.42
2023-05-19T00:06:31.993Z,49.23
2023-05-19T00:09:05.607Z,48.59
2023-05-19T00:11:42.401Z,48.08
2023-05-19T00:14:18.579Z,47.94
2023-05-19T00:16:49.116Z,47.71
2023-05-19T00:19:19.268Z,47.75
2023-05-19T00:21:48.994Z,48.15
2023-05-19T00:24:20.504Z,48.52
2023-05-19T00:26:50.160Z,48.79
2023-05-19T00:29:27.805Z,48.96
2023-05-19T00:32:00.287Z,49.06
2023-05-19T00:34:30.090Z,48.86
2023-05-19T00:37:03.014Z,49.05
2023-05-19T00:39:43.421Z,48.92
2023-05-19T00:42:13.352Z,49.18
2023-05-19T00:44:52.809Z,49.33
2023-05-19T00:47:22.771Z,48.90
2023-05-19T00:49:56.267Z,48.82
2023-05-19T00:52:29.292Z,48.83
2023-05-19T00:54:58.963Z,48.83
2023-05-19T00:57:28.785Z,48.99
2023-05-19T00:59:58.625Z,49.30
2023-05-19T01:02:31.310Z,48.75
2023-05-19T01:05:03.062Z,48.75
2023-05-19T01:07:33.229Z,48.96
2023-05-19T01:10:06.457Z,49.08
2023-05-19T01:12:36.703Z,48.96
2023-05-19T01:15:07.148Z,48.90
2023-05-19T01:18:16.816Z,49.17
2023-05-19T01:21:00.919Z,51.63
2023-05-19T01:23:30.654Z,52.43
2023-05-19T01:26:17.648Z,52.94
2023-05-19T01:29:14.179Z,52.94
2023-05-19T01:31:45.051Z,52.36
2023-05-19T01:34:18.137Z,51.12
2023-05-19T01:36:54.009Z,47.56
2023-05-19T01:39:25.379Z,47.63
2023-05-19T01:41:55.217Z,48.65
2023-05-19T01:44:30.224Z,48.27
2023-05-19T01:46:59.976Z,48.45
2023-05-19T01:49:35.477Z,48.90
2023-05-19T01:52:05.447Z,48.06
2023-05-19T01:54:35.444Z,48.00
2023-05-19T01:57:49.992Z,47.61
2023-05-19T02:00:44.160Z,48.06
2023-05-19T02:03:28.853Z,48.36
2023-05-19T02:06:03.929Z,48.31
2023-05-19T02:08:33.473Z,48.27
2023-05-19T02:11:11.509Z,48.36
2023-05-19T02:13:46.480Z,48.21
2023-05-19T02:16:18.849Z,48.41
2023-05-19T02:18:49.646Z,48.64
2023-05-19T02:21:19.409Z,47.73
2023-05-19T02:23:49.940Z,49.35
2023-05-19T02:26:19.744Z,48.22
2023-05-19T02:28:53.352Z,48.32
2023-05-19T02:31:23.083Z,47.86
2023-05-19T02:33:52.791Z,48.13
2023-05-19T02:36:27.623Z,48.52
2023-05-19T02:39:06.577Z,48.03
2023-05-19T02:41:43.114Z,47.84
2023-05-19T02:44:15.890Z,48.04
2023-05-19T02:46:48.960Z,48.01
2023-05-19T02:49:25.249Z,47.63
2023-05-19T02:51:55.709Z,47.61
2023-05-19T02:54:28.624Z,47.51
2023-05-19T02:57:01.644Z,47.90
2023-05-19T02:59:31.583Z,47.62
2023-05-19T03:02:08.710Z,47.72
2023-05-19T03:04:43.181Z,47.77
2023-05-19T03:07:12.624Z,47.75
2023-05-19T03:09:56.204Z,47.47
2023-05-19T03:12:42.303Z,47.70
2023-05-19T03:15:14.728Z,48.49
2023-05-19T03:17:47.419Z,47.86
2023-05-19T03:20:19.925Z,47.64
2023-05-19T03:22:49.883Z,47.78
2023-05-19T03:25:22.758Z,47.51
2023-05-19T03:28:01.281Z,47.73
2023-05-19T03:30:34.343Z,48.08
2023-05-19T03:33:07.394Z,47.83
2023-05-19T03:35:40.918Z,47.56
2023-05-19T03:38:10.590Z,47.45
2023-05-19T03:40:54.793Z,47.29
2023-05-19T03:43:30.644Z,47.66
2023-05-19T03:46:00.732Z,47.03
2023-05-19T03:48:32.745Z,47.85
2023-05-19T03:51:05.979Z,47.54
2023-05-19T03:53:35.821Z,47.61
2023-05-19T03:56:08.297Z,47.74
2023-05-19T03:58:41.096Z,48.00
2023-05-19T04:01:10.944Z,47.92
2023-05-19T04:03:43.614Z,47.58
2023-05-19T04:06:14.482Z,47.26
2023-05-19T04:08:45.861Z,47.38
2023-05-19T04:11:15.742Z,47.16
2023-05-19T04:13:46.247Z,47.18
2023-05-19T04:16:18.939Z,47.24
2023-05-19T04:18:48.689Z,47.27
2023-05-19T04:21:18.509Z,47.10
2023-05-19T04:23:48.331Z,47.09
2023-05-19T04:26:20.979Z,46.69
2023-05-19T04:28:51.059Z,46.84
2023-05-19T04:31:24.567Z,46.19
2023-05-19T04:33:55.097Z,46.70
2023-05-19T04:36:25.615Z,48.39
2023-05-19T04:38:56.707Z,48.03
2023-05-19T04:41:26.370Z,48.40
2023-05-19T04:43:56.187Z,48.15
2023-05-19T04:46:27.643Z,48.03
2023-05-19T04:48:58.706Z,47.77
2023-05-19T04:51:32.552Z,47.73
2023-05-19T04:54:03.114Z,48.14
2023-05-19T04:56:32.902Z,47.91
2023-05-19T04:59:02.909Z,50.26
2023-05-19T05:01:34.585Z,51.06
2023-05-19T05:04:07.200Z,50.44
2023-05-19T05:06:39.960Z,50.22
2023-05-19T05:09:09.683Z,50.17
2023-05-19T05:11:39.823Z,49.74
2023-05-19T05:14:09.858Z,49.83
2023-05-19T05:16:40.016Z,49.79
2023-05-19T05:19:12.247Z,49.09
2023-05-19T05:21:43.060Z,48.71
2023-05-19T05:24:13.741Z,48.71
2023-05-19T05:26:47.555Z,48.40
2023-05-19T05:29:17.359Z,48.81
2023-05-19T05:31:56.029Z,48.84
2023-05-19T05:34:25.781Z,48.58
2023-05-19T05:36:55.564Z,49.12
2023-05-19T05:39:25.254Z,48.52
2023-05-19T05:41:54.920Z,48.45
2023-05-19T05:44:24.620Z,48.38
2023-05-19T05:46:57.441Z,48.98
2023-05-19T05:49:27.463Z,49.01
2023-05-19T05:54:33.453Z,48.19
2023-05-19T05:57:07.069Z,48.42
2023-05-19T05:59:39.672Z,48.52
2023-05-19T06:02:11.810Z,48.45
2023-05-19T06:04:45.213Z,46.51
2023-05-19T06:07:24.216Z,45.77
2023-05-19T06:09:54.040Z,46.76
2023-05-19T06:12:24.618Z,46.39
2023-05-19T06:14:54.432Z,46.12
2023-05-19T06:17:24.144Z,46.17
2023-05-19T06:19:53.899Z,46.45
2023-05-19T06:22:32.920Z,46.49
2023-05-19T06:25:02.643Z,46.14
2023-05-19T06:27:44.763Z,45.74
2023-05-19T06:30:15.789Z,46.13
2023-05-19T06:32:45.800Z,46.26
2023-05-19T06:35:15.653Z,46.02
2023-05-19T06:37:48.069Z,45.91
2023-05-19T06:40:17.847Z,45.62
2023-05-19T06:42:47.600Z,45.75
2023-05-19T06:45:17.467Z,45.38
2023-05-19T06:47:47.236Z,45.84
2023-05-19T06:50:17.240Z,45.55
2023-05-19T06:52:48.583Z,45.27
2023-05-19T06:55:18.450Z,45.05
2023-05-19T06:57:51.066Z,45.01
2023-05-19T07:00:24.597Z,44.92
2023-05-19T07:02:54.745Z,44.79
2023-05-19T07:05:24.765Z,45.01
2023-05-19T07:07:56.858Z,44.91
2023-05-19T07:10:36.691Z,44.79
2023-05-19T07:13:06.562Z,44.57
2023-05-19T07:15:42.605Z,44.58
2023-05-19T07:18:12.555Z,44.52
2023-05-19T07:20:42.411Z,44.38
2023-05-19T07:23:16.048Z,44.27
2023-05-19T07:25:47.184Z,44.37
2023-05-19T07:28:22.087Z,44.34
2023-05-19T07:30:54.840Z,44.40
2023-05-19T07:33:24.711Z,44.71
2023-05-19T07:35:56.993Z,44.48
2023-05-19T07:38:35.996Z,44.50
2023-05-19T07:41:06.358Z,44.50
2023-05-19T07:43:39.665Z,44.26
2023-05-19T07:46:13.780Z,43.99
2023-05-19T07:48:45.597Z,43.79
2023-05-19T07:51:16.157Z,43.55
2023-05-19T07:53:48.243Z,43.84
2023-05-19T07:56:20.666Z,45.76
2023-05-19T07:58:50.401Z,46.00
2023-05-19T08:01:23.023Z,46.27
2023-05-19T08:03:55.752Z,45.98
2023-05-19T08:06:26.833Z,45.97
2023-05-19T08:08:59.174Z,44.28
2023-05-19T08:11:28.914Z,43.80
2023-05-19T08:13:59.019Z,44.04
2023-05-19T08:16:36.557Z,44.11
2023-05-19T08:19:08.428Z,44.13
2023-05-19T08:21:38.589Z,44.12
2023-05-19T08:24:08.548Z,44.23
2023-05-19T08:26:38.384Z,45.11
2023-05-19T08:29:08.062Z,44.89
2023-05-19T08:31:38.178Z,44.65
2023-05-19T08:34:11.223Z,44.91
2023-05-19T08:36:42.360Z,44.92
2023-05-19T08:39:15.299Z,45.22
2023-05-19T08:41:45.009Z,45.37
2023-05-19T08:44:16.107Z,45.33
2023-05-19T08:46:46.888Z,45.33
2023-05-19T08:49:18.349Z,45.32
2023-05-19T08:51:53.231Z,45.44
2023-05-19T08:54:24.043Z,45.62
2023-05-19T08:56:54.020Z,45.61
2023-05-19T08:59:27.220Z,45.46
2023-05-19T09:01:57.104Z,45.77
2023-05-19T09:04:30.329Z,45.92
2023-05-19T09:09:33.956Z,45.74
2023-05-19T09:12:03.756Z,46.05
2023-05-19T09:14:33.663Z,46.05
2023-05-19T09:17:04.198Z,45.99
2023-05-19T09:19:34.562Z,46.19
2023-05-19T09:22:08.273Z,46.23
2023-05-19T09:24:38.030Z,46.19
2023-05-19T09:27:07.861Z,46.19
2023-05-19T09:29:37.547Z,46.32
2023-05-19T09:32:07.692Z,46.48
2023-05-19T09:34:37.660Z,46.47
2023-05-19T09:37:07.584Z,46.33
2023-05-19T09:39:37.368Z,46.40
2023-05-19T09:42:08.639Z,46.36
2023-05-19T09:44:40.920Z,46.30
2023-05-19T09:47:15.807Z,46.56
2023-05-19T09:49:49.429Z,46.44
2023-05-19T09:52:19.778Z,46.60
2023-05-19T09:54:52.841Z,46.53
2023-05-19T09:57:30.988Z,46.07
2023-05-19T10:00:01.253Z,46.64
2023-05-19T10:02:31.276Z,46.64
2023-05-19T10:05:01.125Z,46.71
2023-05-19T10:07:30.996Z,46.15
2023-05-19T10:10:00.821Z,46.67
2023-05-19T10:12:30.618Z,46.91
2023-05-19T10:15:00.935Z,46.95
2023-05-19T10:17:30.832Z,46.90
2023-05-19T10:20:01.337Z,46.91
2023-05-19T10:22:37.138Z,47.20
2023-05-19T10:25:07.775Z,47.02
2023-05-19T10:27:47.728Z,47.11
2023-05-19T10:30:22.922Z,47.12
2023-05-19T10:32:53.618Z,47.03
2023-05-19T10:35:32.802Z,47.05
2023-05-19T10:38:30.286Z,47.10
2023-05-19T10:41:09.955Z,47.16
2023-05-19T10:43:58.339Z,47.29
2023-05-19T10:46:34.924Z,47.40
2023-05-19T10:49:04.637Z,47.44
2023-05-19T10:51:34.757Z,47.36
2023-05-19T10:54:05.562Z,47.40
2023-05-19T10:56:37.579Z,47.41
2023-05-19T10:59:07.467Z,47.46
2023-05-19T11:01:39.858Z,47.66
2023-05-19T11:04:15.512Z,47.54
2023-05-19T11:06:53.464Z,47.47
2023-05-19T11:09:34.163Z,47.57
2023-05-19T11:12:07.599Z,47.21
2023-05-19T11:14:51.591Z,47.43
2023-05-19T11:17:25.311Z,47.28
2023-05-19T11:19:57.408Z,47.25
2023-05-19T11:22:31.096Z,47.01
2023-05-19T11:25:05.515Z,47.17
2023-05-19T11:27:54.353Z,46.93
2023-05-19T11:30:24.035Z,47.11
2023-05-19T11:32:55.134Z,46.88
2023-05-19T11:35:25.878Z,47.43
2023-05-19T11:37:56.767Z,47.83
2023-05-19T11:40:37.013Z,47.14
2023-05-19T11:43:06.685Z,47.37
2023-05-19T11:45:57.380Z,47.49
2023-05-19T11:48:42.778Z,47.59
2023-05-19T11:51:12.481Z,47.29
2023-05-19T11:53:42.228Z,46.97
2023-05-19T11:56:12.611Z,46.14
2023-05-19T11:59:05.156Z,47.17
2023-05-19T12:01:36.097Z,47.09
2023-05-19T12:04:15.467Z,47.17
2023-05-19T12:06:45.261Z,46.63
2023-05-19T12:09:14.976Z,47.16
2023-05-19T12:11:47.357Z,46.63
2023-05-19T12:14:17.540Z,47.13
2023-05-19T12:16:49.948Z,46.96
2023-05-19T12:19:22.604Z,46.90
2023-05-19T12:21:53.199Z,46.32
2023-05-19T12:24:38.501Z,47.13
2023-05-19T12:27:24.677Z,47.10
2023-05-19T12:29:55.510Z,47.38
2023-05-19T12:32:31.108Z,47.17
2023-05-19T12:35:01.894Z,47.37
2023-05-19T12:37:31.760Z,47.47
2023-05-19T12:40:02.160Z,46.74
2023-05-19T12:42:39.809Z,47.67
2023-05-19T12:45:10.039Z,47.73
2023-05-19T12:47:42.407Z,47.71
2023-05-19T12:50:33.213Z,47.38
2023-05-19T12:53:03.094Z,47.91
2023-05-19T12:55:33.097Z,47.10
2023-05-19T12:58:15.359Z,48.13
2023-05-19T13:00:49.477Z,47.95
2023-05-19T13:03:21.244Z,48.14
2023-05-19T13:05:52.554Z,48.32
2023-05-19T13:08:23.609Z,48.38
2023-05-19T13:10:53.335Z,48.46
2023-05-19T13:13:23.577Z,48.00
2023-05-19T13:15:53.670Z,48.42
2023-05-19T13:18:23.345Z,48.65
2023-05-19T13:20:54.629Z,48.65
2023-05-19T13:23:27.854Z,48.60
2023-05-19T13:26:00.216Z,48.67
2023-05-19T13:28:29.996Z,48.82
2023-05-19T13:30:59.800Z,48.59
2023-05-19T13:33:29.825Z,48.70
2023-05-19T13:35:59.513Z,49.16
2023-05-19T13:38:31.907Z,48.96
2023-05-19T13:41:01.695Z,48.97
2023-05-19T13:43:34.268Z,49.12
2023-05-19T13:46:04.066Z,49.12
2023-05-19T13:48:33.793Z,49.37
2023-05-19T13:51:04.043Z,49.54
2023-05-19T13:53:39.141Z,49.40
2023-05-19T13:56:23.975Z,49.28
2023-05-19T13:58:54.509Z,49.49
2023-05-19T14:01:24.176Z,49.49
2023-05-19T14:03:54.062Z,49.58
2023-05-19T14:06:23.854Z,49.60
2023-05-19T14:08:53.542Z,49.47
2023-05-19T14:11:28.877Z,49.74
2023-05-19T14:13:58.997Z,49.66
2023-05-19T14:16:30.218Z,49.59
2023-05-19T14:19:00.439Z,49.61
2023-05-19T14:21:30.109Z,49.87
2023-05-19T14:23:59.847Z,49.55
2023-05-19T14:26:29.796Z,49.50
2023-05-19T14:28:59.677Z,49.63
2023-05-19T14:31:29.736Z,49.73
2023-05-19T14:33:59.792Z,49.70
2023-05-19T14:36:29.462Z,49.57
2023-05-19T14:38:59.164Z,49.63
2023-05-19T14:41:30.520Z,49.58
2023-05-19T14:44:00.198Z,49.58
2023-05-19T14:46:29.852Z,49.73
2023-05-19T14:48:59.523Z,49.85
2023-05-19T14:51:32.036Z,49.56
2023-05-19T14:54:02.763Z,49.77
2023-05-19T14:56:32.626Z,49.82
2023-05-19T14:59:02.379Z,49.71
2023-05-19T15:01:32.687Z,49.82
2023-05-19T15:04:05.456Z,49.85
2023-05-19T15:06:58.195Z,49.97
2023-05-19T15:09:38.727Z,50.02
2023-05-19T15:12:08.947Z,49.72
2023-05-19T15:14:38.622Z,50.05
2023-05-19T15:17:08.479Z,50.06
2023-05-19T15:19:38.196Z,49.98
2023-05-19T15:22:11.411Z,50.02
2023-05-19T15:24:42.742Z,50.07
2023-05-19T15:27:15.199Z,49.89
2023-05-19T15:29:47.600Z,48.95
2023-05-19T15:34:46.534Z,49.03
2023-05-19T15:37:16.496Z,48.84
2023-05-19T15:39:46.176Z,48.99
2023-05-19T15:42:15.843Z,49.42
2023-05-19T15:44:47.946Z,49.30
2023-05-19T15:47:17.709Z,49.48
2023-05-19T15:49:53.857Z,49.34
2023-05-19T15:52:26.271Z,49.43
2023-05-19T15:54:56.808Z,49.47
2023-05-19T15:57:26.829Z,49.50
2023-05-19T15:59:56.892Z,49.74
2023-05-19T16:02:27.058Z,49.58
2023-05-19T16:04:56.793Z,49.81
2023-05-19T16:07:26.434Z,49.64
2023-05-19T16:10:15.747Z,49.52
2023-05-19T16:12:48.861Z,49.80
2023-05-19T16:15:18.611Z,49.71
2023-05-19T16:17:48.307Z,49.69
2023-05-19T16:20:22.749Z,49.57
2023-05-19T16:22:52.447Z,49.80
2023-05-19T16:25:22.333Z,49.72
2023-05-19T16:27:52.397Z,49.82
2023-05-19T16:30:26.027Z,49.73
2023-05-19T16:32:56.313Z,49.73
2023-05-19T16:35:26.078Z,49.71
2023-05-19T16:37:55.801Z,49.64
2023-05-19T16:40:30.951Z,49.61
2023-05-19T16:43:00.854Z,49.98
2023-05-19T16:45:30.644Z,49.95
2023-05-19T16:48:02.907Z,49.86
2023-05-19T16:50:33.239Z,49.78
2023-05-19T16:53:03.306Z,50.07
2023-05-19T16:55:48.818Z,50.05
2023-05-19T16:58:18.489Z,50.05
2023-05-19T17:00:50.836Z,50.32
2023-05-19T17:03:20.906Z,50.02
2023-05-19T17:05:50.951Z,50.08
2023-05-19T17:08:23.345Z,50.05
2023-05-19T17:10:53.399Z,50.12
2023-05-19T17:13:23.138Z,50.03
2023-05-19T17:15:56.935Z,50.14
2023-05-19T17:18:29.686Z,50.09
2023-05-19T17:21:00.875Z,50.40
2023-05-19T17:23:47.756Z,50.14
2023-05-19T17:26:21.054Z,50.11
2023-05-19T17:28:51.127Z,50.24
2023-05-19T17:31:23.554Z,50.44
2023-05-19T17:33:53.417Z,50.34
2023-05-19T17:36:26.166Z,50.39
2023-05-19T17:38:55.763Z,50.24
2023-05-19T17:41:25.564Z,50.42
2023-05-19T17:43:55.221Z,50.31
2023-05-19T17:46:24.941Z,50.12
2023-05-19T17:48:54.693Z,50.35
2023-05-19T17:51:24.575Z,50.22
2023-05-19T17:53:54.574Z,50.21
2023-05-19T17:56:30.807Z,50.31
2023-05-19T17:59:00.788Z,50.21
2023-05-19T18:01:30.742Z,50.21
2023-05-19T18:04:20.447Z,50.10
2023-05-19T18:06:50.660Z,50.18
2023-05-19T18:09:27.158Z,50.38
2023-05-19T18:11:58.775Z,50.30
2023-05-19T18:14:31.245Z,50.17
2023-05-19T18:17:02.735Z,50.17
2023-05-19T18:19:32.433Z,50.29
2023-05-19T18:22:04.911Z,50.33
2023-05-19T18:24:34.609Z,50.21
2023-05-19T18:27:04.834Z,50.15
2023-05-19T18:29:36.375Z,50.29
2023-05-19T18:32:06.292Z,50.46
2023-05-19T18:34:36.151Z,50.03
2023-05-19T18:37:05.917Z,50.27
2023-05-19T18:39:35.677Z,50.05
2023-05-19T18:42:20.464Z,50.18
2023-05-19T18:44:49.979Z,49.98
2023-05-19T18:47:24.307Z,49.98
2023-05-19T18:49:56.653Z,50.23
2023-05-19T18:52:28.185Z,50.30
2023-05-19T18:54:58.049Z,50.37
2023-05-19T18:57:28.051Z,50.50
2023-05-19T19:00:08.000Z,50.21
2023-05-19T19:02:37.871Z,50.16
2023-05-19T19:05:11.083Z,50.36
2023-05-19T19:07:44.708Z,50.36
2023-05-19T19:10:15.070Z,50.22
2023-05-19T19:13:00.897Z,50.23
2023-05-19T19:15:39.339Z,50.24
2023-05-19T19:18:12.175Z,50.43
2023-05-19T19:20:41.971Z,50.40
2023-05-19T19:23:14.328Z,50.39
2023-05-19T19:25:44.030Z,50.30
2023-05-19T19:28:13.681Z,50.38
2023-05-19T19:30:43.391Z,50.56
2023-05-19T19:33:13.487Z,50.66
2023-05-19T19:35:45.680Z,50.51
2023-05-19T19:38:15.748Z,50.46
2023-05-19T19:40:45.422Z,50.40
2023-05-19T19:43:15.074Z,50.26
2023-05-19T19:45:44.953Z,50.40
2023-05-19T19:48:34.325Z,50.45
2023-05-19T19:51:04.008Z,50.47
2023-05-19T19:53:36.880Z,50.34
2023-05-19T19:56:07.760Z,50.35
2023-05-19T19:58:38.506Z,50.18
2023-05-19T20:01:09.461Z,50.23
2023-05-19T20:03:39.569Z,50.36
2023-05-19T20:06:09.524Z,50.33
2023-05-19T20:08:39.335Z,50.38
2023-05-19T20:11:31.434Z,50.37
2023-05-19T20:14:01.144Z,50.32
2023-05-19T20:16:30.966Z,50.32
2023-05-19T20:19:00.769Z,50.34
2023-05-19T20:21:30.467Z,50.47
2023-05-19T20:24:00.353Z,50.40
2023-05-19T20:26:49.698Z,50.36
2023-05-19T20:29:19.792Z,50.29
2023-05-19T20:31:49.523Z,50.41
2023-05-19T20:34:19.215Z,50.30
2023-05-19T20:36:50.496Z,50.47
2023-05-19T20:39:22.864Z,50.58
2023-05-19T20:41:52.560Z,50.38
2023-05-19T20:44:22.250Z,50.46
2023-05-19T20:46:53.055Z,50.37
2023-05-19T20:49:25.924Z,50.33
2023-05-19T20:51:55.864Z,50.17
2023-05-19T20:54:25.522Z,50.10
2023-05-19T20:56:55.172Z,50.28
2023-05-19T20:59:24.794Z,50.54
2023-05-19T21:01:54.508Z,50.41
2023-05-19T21:04:43.986Z,50.52
2023-05-19T21:07:17.114Z,50.41
2023-05-19T21:09:49.535Z,50.48
2023-05-19T21:12:21.236Z,50.46
2023-05-19T21:14:51.567Z,50.04
2023-05-19T21:17:22.705Z,49.96
2023-05-19T21:20:02.471Z,49.87
2023-05-19T21:22:37.137Z,49.78
2023-05-19T21:25:10.384Z,49.99
2023-05-19T21:27:41.099Z,49.79
2023-05-19T21:30:11.285Z,49.87
2023-05-19T21:32:43.802Z,49.70
2023-05-19T21:35:13.567Z,49.44
2023-05-19T21:37:43.256Z,49.63
2023-05-19T21:40:13.391Z,49.72
2023-05-19T21:42:43.068Z,49.73
2023-05-19T21:45:13.229Z,49.68
2023-05-19T21:47:42.890Z,49.79
2023-05-19T21:50:17.120Z,49.80
2023-05-19T21:52:50.129Z,49.81
2023-05-19T21:55:19.803Z,49.85
2023-05-19T21:57:49.602Z,49.96
2023-05-19T22:00:19.485Z,49.94
2023-05-19T22:02:49.297Z,49.73
2023-05-19T22:05:19.217Z,49.92
2023-05-19T22:07:49.695Z,49.56
2023-05-19T22:10:19.400Z,49.46
2023-05-19T22:12:49.096Z,49.04
2023-05-19T22:15:20.146Z,48.92
2023-05-19T22:17:49.844Z,48.68
2023-05-19T22:20:19.537Z,48.59
2023-05-19T22:22:49.602Z,48.71
2023-05-19T22:25:25.869Z,48.57
2023-05-19T22:27:56.381Z,48.66
2023-05-19T22:30:26.561Z,48.75
2023-05-19T22:32:57.134Z,48.70
2023-05-19T22:35:29.795Z,48.55
2023-05-19T22:38:02.478Z,48.66
2023-05-19T22:40:35.076Z,48.49
2023-05-19T22:43:07.526Z,48.45
2023-05-19T22:45:54.252Z,48.24
2023-05-19T22:48:26.723Z,48.23
2023-05-19T22:50:56.545Z,48.62
2023-05-19T22:53:26.326Z,48.49
2023-05-19T22:55:56.102Z,48.45
2023-05-19T22:58:28.632Z,48.52
2023-05-19T23:01:01.555Z,48.53
2023-05-19T23:03:31.337Z,48.48
2023-05-19T23:06:00.976Z,48.36
2023-05-19T23:08:30.667Z,48.20
2023-05-19T23:11:03.852Z,48.34
2023-05-19T23:13:33.723Z,48.11
2023-05-19T23:16:04.237Z,48.07
2023-05-19T23:18:34.114Z,47.93
2023-05-19T23:21:03.732Z,47.86
2023-05-19T23:23:49.595Z,47.85
2023-05-19T23:26:21.798Z,47.60
2023-05-19T23:28:52.099Z,47.88
2023-05-19T23:31:24.566Z,47.58
2023-05-19T23:33:54.797Z,47.67
2023-05-19T23:36:26.104Z,47.59
2023-05-19T23:39:02.768Z,47.34
2023-05-19T23:41:32.990Z,47.44
2023-05-19T23:44:02.843Z,47.73
2023-05-19T23:46:32.658Z,47.45
2023-05-19T23:49:02.498Z,47.51
2023-05-19T23:51:32.849Z,47.47
2023-05-19T23:54:02.575Z,47.31
2023-05-19T23:56:32.335Z,47.41
2023-05-19T23:59:02.404Z,47.52
